createdAt,value
2023-10-10T00:00:50.798Z,102196.38
2023-10-10T00:03:19.503Z,102191.66
2023-10-10T00:05:46.260Z,102202.63
2023-10-10T00:08:12.968Z,102204.16
2023-10-10T00:10:50.445Z,102208.84
2023-10-10T00:13:18.545Z,102208.06
2023-10-10T00:15:51.329Z,102200.22
2023-10-10T00:18:20.585Z,102203.31
2023-10-10T00:21:06.288Z,102200.97
2023-10-10T00:23:39.740Z,102207.22
2023-10-10T00:26:06.901Z,102213.03
2023-10-10T00:28:35.637Z,102209.13
2023-10-10T00:31:12.333Z,102202.84
2023-10-10T00:33:39.637Z,102197.72
2023-10-10T00:36:21.558Z,102192.25
2023-10-10T00:38:50.303Z,102188.34
2023-10-10T00:41:17.240Z,102180.91
2023-10-10T00:43:44.276Z,102170.72
2023-10-10T00:46:12.683Z,102175.00
2023-10-10T00:48:41.062Z,102166.75
2023-10-10T00:51:12.424Z,102162.81
2023-10-10T00:53:42.466Z,102167.50
2023-10-10T00:56:09.325Z,102167.47
2023-10-10T00:58:38.107Z,102170.19
2023-10-10T01:01:16.035Z,102177.22
2023-10-10T01:03:46.371Z,102172.16
2023-10-10T01:06:21.433Z,102169.41
2023-10-10T01:08:56.495Z,102168.25
2023-10-10T01:11:24.167Z,102157.66
2023-10-10T01:13:57.938Z,102158.81
2023-10-10T01:16:26.025Z,102154.50
2023-10-10T01:18:59.665Z,102165.47
2023-10-10T01:21:43.355Z,102159.56
2023-10-10T01:24:13.191Z,102152.91
2023-10-10T01:26:45.311Z,102147.00
2023-10-10T01:29:21.801Z,102141.91
2023-10-10T01:31:49.846Z,102135.66
2023-10-10T01:34:32.529Z,102134.09
2023-10-10T01:37:08.841Z,102135.25
2023-10-10T01:39:50.065Z,102131.31
2023-10-10T01:42:24.980Z,102128.16
2023-10-10T01:44:53.219Z,102125.78
2023-10-10T01:47:20.803Z,102126.97
2023-10-10T01:49:47.849Z,102123.81
2023-10-10T01:52:18.524Z,102124.59
2023-10-10T01:54:47.434Z,102119.47
2023-10-10T01:57:22.976Z,102125.72
2023-10-10T01:59:50.850Z,102120.63
2023-10-10T02:02:20.037Z,102124.91
2023-10-10T02:04:46.791Z,102115.09
2023-10-10T02:07:18.064Z,102115.50
2023-10-10T02:09:45.126Z,102120.16
2023-10-10T02:12:18.072Z,102111.16
2023-10-10T02:14:44.960Z,102112.31
2023-10-10T02:17:22.570Z,102116.59
2023-10-10T02:19:55.614Z,102116.59
2023-10-10T02:22:40.956Z,102114.22
2023-10-10T02:25:26.461Z,102113.03
2023-10-10T02:27:56.131Z,102116.53
2023-10-10T02:30:40.388Z,102111.44
2023-10-10T02:33:32.200Z,102102.81
2023-10-10T02:35:59.303Z,102096.91
2023-10-10T02:38:33.106Z,102093.75
2023-10-10T02:41:24.237Z,102093.75
2023-10-10T02:44:01.996Z,102093.75
2023-10-10T02:46:38.912Z,102102.38
2023-10-10T02:49:15.239Z,102090.22
2023-10-10T02:51:44.671Z,102098.81
2023-10-10T02:54:29.108Z,102090.97
2023-10-10T02:57:00.540Z,102081.19
2023-10-10T02:59:39.400Z,102084.72
2023-10-10T03:02:10.941Z,102076.50
2023-10-10T03:04:56.134Z,102082.34
2023-10-10T03:07:30.228Z,102081.16
2023-10-10T03:10:23.067Z,102084.25
2023-10-10T03:12:52.018Z,102081.09
2023-10-10T03:15:20.877Z,102080.31
2023-10-10T03:17:49.428Z,102077.19
2023-10-10T03:20:39.853Z,102080.69
2023-10-10T03:23:06.804Z,102081.81
2023-10-10T03:25:55.378Z,102074.78
2023-10-10T03:28:28.721Z,102074.78
2023-10-10T03:31:12.023Z,102071.28
2023-10-10T03:33:45.080Z,102075.94
2023-10-10T03:36:21.964Z,102057.97
2023-10-10T03:38:50.373Z,102059.53
2023-10-10T03:41:25.058Z,102053.69
2023-10-10T03:44:11.984Z,102057.19
2023-10-10T03:46:57.096Z,102059.56
2023-10-10T03:49:43.489Z,102056.03
2023-10-10T03:52:31.350Z,102059.97
2023-10-10T03:55:16.823Z,102051.81
2023-10-10T03:58:02.365Z,102051.03
2023-10-10T04:00:47.508Z,102052.22
2023-10-10T04:03:32.995Z,102050.69
2023-10-10T04:06:26.130Z,102050.72
2023-10-10T04:09:11.562Z,102058.94
2023-10-10T04:11:56.662Z,102055.47
2023-10-10T04:14:41.907Z,102049.63
2023-10-10T04:17:27.208Z,102046.88
2023-10-10T04:20:12.787Z,102050.81
2023-10-10T04:22:57.932Z,102045.38
2023-10-10T04:25:42.994Z,102033.28
2023-10-10T04:28:27.882Z,102034.88
2023-10-10T04:31:13.010Z,102034.91
2023-10-10T04:33:58.206Z,102029.03
2023-10-10T04:36:43.456Z,102026.69
2023-10-10T04:39:28.628Z,102012.63
2023-10-10T04:42:13.707Z,102017.31
2023-10-10T04:44:58.713Z,102018.13
2023-10-10T04:47:52.265Z,102015.41
2023-10-10T04:50:37.533Z,102017.34
2023-10-10T04:53:22.636Z,102024.41
2023-10-10T04:56:07.861Z,102020.50
2023-10-10T04:58:53.021Z,102003.66
2023-10-10T05:01:38.084Z,102013.06
2023-10-10T05:04:23.297Z,101996.25
2023-10-10T05:07:08.340Z,101997.81
2023-10-10T05:09:54.643Z,101988.44
2023-10-10T05:12:39.612Z,101988.44
2023-10-10T05:15:25.298Z,101988.44
2023-10-10T05:18:10.463Z,101997.06
2023-10-10T05:20:55.421Z,101983.72
2023-10-10T05:23:31.705Z,101988.84
2023-10-10T05:26:00.639Z,101975.50
2023-10-10T05:28:31.667Z,101979.03
2023-10-10T05:30:59.111Z,101982.53
2023-10-10T05:33:27.818Z,101980.63
2023-10-10T05:36:01.054Z,101977.88
2023-10-10T05:38:27.779Z,101985.28
2023-10-10T05:40:55.407Z,101979.03
2023-10-10T05:43:27.948Z,101977.47
2023-10-10T05:45:55.946Z,101979.03
2023-10-10T05:48:23.326Z,101974.31
2023-10-10T05:50:50.058Z,101966.09
2023-10-10T05:53:18.350Z,101960.63
2023-10-10T05:55:51.548Z,101954.38
2023-10-10T05:58:19.259Z,101971.59
2023-10-10T06:00:50.413Z,101971.97
2023-10-10T06:03:18.418Z,101971.56
2023-10-10T06:05:46.462Z,101965.66
2023-10-10T06:08:14.604Z,101965.66
2023-10-10T06:10:41.365Z,101970.38
2023-10-10T06:13:09.340Z,101969.19
2023-10-10T06:15:36.595Z,101962.94
2023-10-10T06:18:19.181Z,101973.50
2023-10-10T06:21:03.061Z,101965.28
2023-10-10T06:23:35.113Z,101964.47
2023-10-10T06:26:03.365Z,101966.81
2023-10-10T06:28:36.826Z,101961.34
2023-10-10T06:31:04.568Z,101959.38
2023-10-10T06:33:31.571Z,101962.94
2023-10-10T06:36:26.588Z,101956.28
2023-10-10T06:39:19.921Z,101965.28
2023-10-10T06:41:49.485Z,101964.50
2023-10-10T06:44:18.382Z,101963.72
2023-10-10T06:46:52.072Z,101963.34
2023-10-10T06:49:22.251Z,101968.81
2023-10-10T06:51:50.747Z,101974.69
2023-10-10T06:54:29.585Z,101975.88
2023-10-10T06:57:02.796Z,101990.00
2023-10-10T06:59:29.962Z,101974.72
2023-10-10T07:02:01.259Z,101972.41
2023-10-10T07:04:28.640Z,101979.84
2023-10-10T07:07:02.134Z,101968.88
2023-10-10T07:09:30.189Z,101977.13
2023-10-10T07:11:58.901Z,101970.88
2023-10-10T07:14:26.895Z,101974.38
2023-10-10T07:17:00.089Z,101969.31
2023-10-10T07:19:31.448Z,101971.66
2023-10-10T07:22:01.680Z,101974.00
2023-10-10T07:24:41.929Z,101975.59
2023-10-10T07:27:14.751Z,101969.72
2023-10-10T07:29:47.205Z,101963.84
2023-10-10T07:32:19.795Z,101964.25
2023-10-10T07:34:52.884Z,101959.94
2023-10-10T07:37:20.216Z,101960.34
2023-10-10T07:39:57.079Z,101948.22
2023-10-10T07:42:32.303Z,101943.13
2023-10-10T07:44:59.645Z,101945.88
2023-10-10T07:47:28.493Z,101951.38
2023-10-10T07:49:56.425Z,101953.78
2023-10-10T07:52:23.664Z,101956.50
2023-10-10T07:54:52.821Z,101961.25
2023-10-10T07:57:27.816Z,101956.53
2023-10-10T07:59:56.922Z,101944.78
2023-10-10T08:02:31.149Z,101952.59
2023-10-10T08:05:02.456Z,101950.28
2023-10-10T08:07:29.943Z,101956.97
2023-10-10T08:10:14.938Z,101962.03
2023-10-10T08:12:43.213Z,101956.94
2023-10-10T08:15:20.650Z,101956.94
2023-10-10T08:17:53.721Z,101960.88
2023-10-10T08:20:34.471Z,101965.19
2023-10-10T08:23:02.633Z,101956.97
2023-10-10T08:25:30.040Z,101951.09
2023-10-10T08:28:00.442Z,101953.84
2023-10-10T08:30:28.143Z,101951.50
2023-10-10T08:32:56.429Z,101953.84
2023-10-10T08:35:24.294Z,101953.47
2023-10-10T08:37:52.458Z,101943.66
2023-10-10T08:40:21.183Z,101942.50
2023-10-10T08:42:50.584Z,101944.84
2023-10-10T08:45:23.675Z,101938.56
2023-10-10T08:48:00.262Z,101945.63
2023-10-10T08:50:28.890Z,101937.00
2023-10-10T08:52:55.589Z,101947.19
2023-10-10T08:55:27.587Z,101950.72
2023-10-10T08:57:56.667Z,101948.38
2023-10-10T09:00:28.195Z,101954.63
2023-10-10T09:02:56.698Z,101955.41
2023-10-10T09:05:27.403Z,101951.13
2023-10-10T09:07:55.566Z,101950.31
2023-10-10T09:10:29.361Z,101945.63
2023-10-10T09:12:56.811Z,101942.09
2023-10-10T09:15:25.562Z,101946.78
2023-10-10T09:17:57.168Z,101941.28
2023-10-10T09:20:28.916Z,101946.38
2023-10-10T09:23:03.245Z,101949.94
2023-10-10T09:25:43.566Z,101945.22
2023-10-10T09:28:16.336Z,101943.63
2023-10-10T09:30:52.311Z,101938.53
2023-10-10T09:33:29.200Z,101940.50
2023-10-10T09:36:10.233Z,101950.31
2023-10-10T09:38:45.058Z,101944.81
2023-10-10T09:41:29.448Z,101939.69
2023-10-10T09:44:22.674Z,101938.09
2023-10-10T09:47:03.426Z,101935.34
2023-10-10T09:49:45.186Z,101939.66
2023-10-10T09:52:31.107Z,101938.84
2023-10-10T09:55:09.603Z,101930.59
2023-10-10T09:57:41.394Z,101932.94
2023-10-10T10:00:26.783Z,101936.84
2023-10-10T10:02:59.028Z,101943.88
2023-10-10T10:05:30.455Z,101937.97
2023-10-10T10:08:08.017Z,101935.16
2023-10-10T10:10:49.878Z,101935.50
2023-10-10T10:13:57.911Z,101929.56
2023-10-10T10:16:38.677Z,101931.13
2023-10-10T10:19:15.375Z,101935.47
2023-10-10T10:21:57.470Z,101943.34
2023-10-10T10:24:34.072Z,101939.81
2023-10-10T10:27:32.032Z,101939.00
2023-10-10T10:30:31.522Z,101944.09
2023-10-10T10:32:59.917Z,101939.75
2023-10-10T10:35:47.346Z,101933.84
2023-10-10T10:38:14.037Z,101938.19
2023-10-10T10:40:42.063Z,101935.41
2023-10-10T10:43:15.822Z,101929.47
2023-10-10T10:46:07.983Z,101927.50
2023-10-10T10:48:36.275Z,101930.97
2023-10-10T10:51:23.684Z,101936.88
2023-10-10T10:53:52.238Z,101930.16
2023-10-10T10:56:19.023Z,101932.09
2023-10-10T10:58:54.938Z,101926.97
2023-10-10T11:01:23.967Z,101922.25
2023-10-10T11:03:53.077Z,101921.41
2023-10-10T11:06:21.553Z,101921.75
2023-10-10T11:08:57.593Z,101916.59
2023-10-10T11:11:34.187Z,101909.88
2023-10-10T11:14:05.350Z,101907.50
2023-10-10T11:16:38.512Z,101903.16
2023-10-10T11:19:20.115Z,101900.38
2023-10-10T11:21:54.994Z,101901.13
2023-10-10T11:24:27.016Z,101894.38
2023-10-10T11:27:08.449Z,101888.06
2023-10-10T11:29:49.226Z,101889.19
2023-10-10T11:32:25.175Z,101897.75
2023-10-10T11:34:57.584Z,101902.47
2023-10-10T11:37:27.817Z,101890.63
2023-10-10T11:40:32.153Z,101886.63
2023-10-10T11:43:04.986Z,101885.34
2023-10-10T11:45:40.378Z,101884.94
2023-10-10T11:48:16.450Z,101884.53
2023-10-10T11:50:52.231Z,101880.16
2023-10-10T11:53:30.804Z,101882.16
2023-10-10T11:56:03.450Z,101876.28
2023-10-10T11:58:37.463Z,101882.56
2023-10-10T12:01:07.897Z,101886.09
2023-10-10T12:03:41.949Z,101877.44
2023-10-10T12:06:20.800Z,101873.13
2023-10-10T12:08:52.671Z,101872.75
2023-10-10T12:11:26.729Z,101870.69
2023-10-10T12:13:54.129Z,101854.97
2023-10-10T12:16:25.293Z,101852.91
2023-10-10T12:18:54.926Z,101851.34
2023-10-10T12:21:23.568Z,101850.13
2023-10-10T12:23:56.098Z,101847.34
2023-10-10T12:26:25.632Z,101839.47
2023-10-10T12:28:53.878Z,101842.59
2023-10-10T12:31:22.896Z,101837.47
2023-10-10T12:33:50.779Z,101837.38
2023-10-10T12:36:17.807Z,101839.75
2023-10-10T12:38:45.572Z,101836.16
2023-10-10T12:41:12.788Z,101836.88
2023-10-10T12:43:39.712Z,101828.22
2023-10-10T12:46:08.717Z,101829.34
2023-10-10T12:48:42.995Z,101831.28
2023-10-10T12:51:11.224Z,101829.69
2023-10-10T12:53:45.014Z,101828.06
2023-10-10T12:56:17.920Z,101826.44
2023-10-10T12:58:52.817Z,101827.19
2023-10-10T13:01:26.764Z,101816.06
2023-10-10T13:03:53.887Z,101821.19
2023-10-10T13:06:24.290Z,101818.78
2023-10-10T13:08:57.660Z,101828.97
2023-10-10T13:11:36.977Z,101830.16
2023-10-10T13:14:15.938Z,101829.66
2023-10-10T13:16:43.816Z,101824.78
2023-10-10T13:19:12.984Z,101820.41
2023-10-10T13:21:40.778Z,101808.88
2023-10-10T13:24:16.538Z,101819.81
2023-10-10T13:26:50.375Z,101811.78
2023-10-10T13:29:18.483Z,101822.66
2023-10-10T13:31:47.646Z,101824.59
2023-10-10T13:34:18.187Z,101820.53
2023-10-10T13:36:44.971Z,101822.44
2023-10-10T13:39:16.704Z,101818.84
2023-10-10T13:41:43.461Z,101815.38
2023-10-10T13:44:12.055Z,101814.22
2023-10-10T13:46:39.217Z,101813.09
2023-10-10T13:49:09.821Z,101817.41
2023-10-10T13:51:42.465Z,101820.94
2023-10-10T13:54:09.248Z,101817.81
2023-10-10T13:56:35.910Z,101824.19
2023-10-10T13:59:03.211Z,101822.28
2023-10-10T14:01:30.280Z,101820.78
2023-10-10T14:04:05.128Z,101825.94
2023-10-10T14:06:47.122Z,101826.78
2023-10-10T14:09:23.691Z,101828.75
2023-10-10T14:11:51.885Z,101812.97
2023-10-10T14:14:19.589Z,101806.69
2023-10-10T14:16:46.292Z,101801.56
2023-10-10T14:19:25.993Z,101800.44
2023-10-10T14:21:53.912Z,101814.22
2023-10-10T14:24:21.607Z,101800.44
2023-10-10T14:26:50.141Z,101789.38
2023-10-10T14:29:18.526Z,101802.78
2023-10-10T14:31:46.422Z,101792.88
2023-10-10T14:34:22.448Z,101785.38
2023-10-10T14:36:52.998Z,101776.25
2023-10-10T14:39:29.929Z,101777.38
2023-10-10T14:41:58.844Z,101771.44
2023-10-10T14:44:27.895Z,101769.03
2023-10-10T14:46:56.903Z,101767.06
2023-10-10T14:49:30.596Z,101757.94
2023-10-10T14:52:01.817Z,101759.91
2023-10-10T14:54:28.597Z,101757.44
2023-10-10T14:56:56.019Z,101748.38
2023-10-10T14:59:26.872Z,101750.72
2023-10-10T15:01:54.189Z,101748.72
2023-10-10T15:04:22.655Z,101746.38
2023-10-10T15:06:56.589Z,101746.38
2023-10-10T15:09:29.431Z,101746.47
2023-10-10T15:12:04.070Z,101740.94
2023-10-10T15:14:33.626Z,101745.75
2023-10-10T15:17:01.979Z,101742.22
2023-10-10T15:19:29.906Z,101731.22
2023-10-10T15:21:58.311Z,101739.16
2023-10-10T15:24:25.207Z,101735.69
2023-10-10T15:26:52.914Z,101731.00
2023-10-10T15:29:23.435Z,101728.66
2023-10-10T15:31:51.762Z,101723.22
2023-10-10T15:34:18.761Z,101726.41
2023-10-10T15:36:47.199Z,101727.59
2023-10-10T15:39:14.262Z,101717.44
2023-10-10T15:41:43.799Z,101714.78
2023-10-10T15:44:13.452Z,101714.88
2023-10-10T15:46:43.881Z,101716.47
2023-10-10T15:49:28.943Z,101714.16
2023-10-10T15:52:04.722Z,101709.53
2023-10-10T15:54:35.563Z,101706.47
2023-10-10T15:57:07.018Z,101707.72
2023-10-10T15:59:34.069Z,101703.41
2023-10-10T16:02:00.724Z,101704.59
2023-10-10T16:04:29.055Z,101699.94
2023-10-10T16:06:56.516Z,101701.13
2023-10-10T16:09:31.072Z,101701.56
2023-10-10T16:11:58.165Z,101698.47
2023-10-10T16:14:25.773Z,101711.53
2023-10-10T16:16:52.562Z,101704.47
2023-10-10T16:19:22.196Z,101704.53
2023-10-10T16:21:49.948Z,101710.13
2023-10-10T16:24:17.377Z,101706.63
2023-10-10T16:26:45.469Z,101702.72
2023-10-10T16:29:13.667Z,101704.41
2023-10-10T16:31:44.991Z,101709.19
2023-10-10T16:34:12.979Z,101702.47
2023-10-10T16:36:40.054Z,101693.94
2023-10-10T16:39:12.067Z,101694.81
2023-10-10T16:41:39.313Z,101694.94
2023-10-10T16:44:06.140Z,101687.50
2023-10-10T16:46:33.420Z,101684.84
2023-10-10T16:49:00.782Z,101685.22
2023-10-10T16:51:28.224Z,101686.72
2023-10-10T16:53:56.387Z,101683.72
2023-10-10T16:56:23.410Z,101678.34
2023-10-10T16:58:53.617Z,101676.47
2023-10-10T17:01:24.203Z,101672.53
2023-10-10T17:03:55.820Z,101676.94
2023-10-10T17:06:24.345Z,101664.81
2023-10-10T17:09:00.535Z,101663.28
2023-10-10T17:11:27.797Z,101660.56
2023-10-10T17:13:55.537Z,101653.16
2023-10-10T17:16:30.221Z,101654.00
2023-10-10T17:19:14.297Z,101650.50
2023-10-10T17:21:47.468Z,101647.41
2023-10-10T17:24:17.543Z,101647.47
2023-10-10T17:26:45.159Z,101642.81
2023-10-10T17:29:13.230Z,101641.25
2023-10-10T17:31:41.553Z,101655.84
2023-10-10T17:34:08.198Z,101644.09
2023-10-10T17:36:38.680Z,101639.03
2023-10-10T17:39:06.260Z,101645.34
2023-10-10T17:41:36.147Z,101639.84
2023-10-10T17:44:10.050Z,101641.41
2023-10-10T17:46:37.599Z,101643.78
2023-10-10T17:49:06.295Z,101641.50
2023-10-10T17:51:35.133Z,101637.59
2023-10-10T17:54:02.365Z,101639.59
2023-10-10T17:56:29.104Z,101633.34
2023-10-10T17:58:55.733Z,101631.84
2023-10-10T18:01:22.696Z,101625.59
2023-10-10T18:03:55.249Z,101628.38
2023-10-10T18:06:24.087Z,101627.63
2023-10-10T18:08:52.699Z,101616.25
2023-10-10T18:11:19.635Z,101619.47
2023-10-10T18:13:49.611Z,101613.97
2023-10-10T18:16:17.594Z,101610.84
2023-10-10T18:18:44.814Z,101608.09
2023-10-10T18:21:12.325Z,101607.72
2023-10-10T18:23:40.363Z,101603.84
2023-10-10T18:26:26.204Z,101603.44
2023-10-10T18:28:54.140Z,101600.72
2023-10-10T18:31:33.482Z,101596.03
2023-10-10T18:34:00.716Z,101601.63
2023-10-10T18:36:27.373Z,101595.38
2023-10-10T18:38:54.962Z,101592.31
2023-10-10T18:41:23.859Z,101592.75
2023-10-10T18:43:51.698Z,101580.25
2023-10-10T18:46:18.315Z,101583.03
2023-10-10T18:48:46.634Z,101581.44
2023-10-10T18:51:14.550Z,101579.16
2023-10-10T18:53:41.922Z,101574.09
2023-10-10T18:56:09.343Z,101576.47
2023-10-10T18:58:39.707Z,101577.25
2023-10-10T19:01:10.837Z,101576.50
2023-10-10T19:03:37.618Z,101578.50
2023-10-10T19:06:07.170Z,101573.41
2023-10-10T19:08:34.438Z,101576.97
2023-10-10T19:11:02.068Z,101560.91
2023-10-10T19:13:31.948Z,101562.91
2023-10-10T19:15:58.588Z,101565.28
2023-10-10T19:18:25.264Z,101558.63
2023-10-10T19:20:52.110Z,101557.06
2023-10-10T19:23:19.978Z,101555.50
2023-10-10T19:25:48.184Z,101561.81
2023-10-10T19:28:17.311Z,101567.69
2023-10-10T19:30:45.094Z,101555.16
2023-10-10T19:33:15.587Z,101550.84
2023-10-10T19:35:49.076Z,101547.72
2023-10-10T19:38:19.339Z,101554.00
2023-10-10T19:40:45.947Z,101543.44
2023-10-10T19:43:14.757Z,101554.00
2023-10-10T19:45:41.774Z,101553.22
2023-10-10T19:48:08.662Z,101555.94
2023-10-10T19:50:43.756Z,101554.78
2023-10-10T19:53:12.414Z,101552.84
2023-10-10T19:55:42.091Z,101556.75
2023-10-10T19:58:14.998Z,101553.22
2023-10-10T20:00:46.908Z,101557.91
2023-10-10T20:03:15.464Z,101556.34
2023-10-10T20:05:43.385Z,101550.47
2023-10-10T20:08:14.131Z,101552.44
2023-10-10T20:10:41.801Z,101550.06
2023-10-10T20:13:08.758Z,101550.06
2023-10-10T20:15:37.732Z,101550.47
2023-10-10T20:18:07.013Z,101548.09
2023-10-10T20:20:33.777Z,101555.16
2023-10-10T20:23:01.817Z,101550.84
2023-10-10T20:25:30.772Z,101555.13
2023-10-10T20:28:00.893Z,101555.94
2023-10-10T20:30:32.567Z,101561.44
2023-10-10T20:33:04.480Z,101557.91
2023-10-10T20:35:33.642Z,101561.03
2023-10-10T20:38:06.655Z,101552.81
2023-10-10T20:40:37.141Z,101555.94
2023-10-10T20:43:06.170Z,101547.34
2023-10-10T20:45:36.524Z,101550.06
2023-10-10T20:48:10.100Z,101548.88
2023-10-10T20:50:42.537Z,101542.59
2023-10-10T20:53:09.541Z,101533.22
2023-10-10T20:55:36.430Z,101533.59
2023-10-10T20:58:03.181Z,101529.72
2023-10-10T21:00:30.872Z,101534.00
2023-10-10T21:02:59.924Z,101534.00
2023-10-10T21:05:27.641Z,101532.44
2023-10-10T21:07:55.968Z,101528.50
2023-10-10T21:10:26.454Z,101530.84
2023-10-10T21:12:53.129Z,101537.91
2023-10-10T21:15:21.411Z,101539.44
2023-10-10T21:17:49.718Z,101527.28
2023-10-10T21:20:17.780Z,101527.63
2023-10-10T21:22:46.488Z,101539.00
2023-10-10T21:25:13.018Z,101531.13
2023-10-10T21:27:43.232Z,101533.06
2023-10-10T21:30:13.530Z,101534.97
2023-10-10T21:32:41.087Z,101527.13
2023-10-10T21:35:09.978Z,101526.72
2023-10-10T21:37:38.317Z,101531.78
2023-10-10T21:40:13.581Z,101538.06
2023-10-10T21:42:44.481Z,101535.28
2023-10-10T21:45:12.262Z,101527.44
2023-10-10T21:47:39.039Z,101533.69
2023-10-10T21:50:10.595Z,101520.75
2023-10-10T21:52:39.489Z,101537.63
2023-10-10T21:55:09.611Z,101533.75
2023-10-10T21:57:38.205Z,101534.53
2023-10-10T22:00:16.809Z,101536.47
2023-10-10T22:02:45.905Z,101539.59
2023-10-10T22:05:14.574Z,101549.38
2023-10-10T22:07:48.196Z,101541.53
2023-10-10T22:10:22.385Z,101535.59
2023-10-10T22:12:55.004Z,101543.44
2023-10-10T22:15:24.539Z,101542.25
2023-10-10T22:17:55.641Z,101525.41
2023-10-10T22:20:23.700Z,101521.06
2023-10-10T22:22:50.309Z,101519.88
2023-10-10T22:25:23.181Z,101523.41
2023-10-10T22:27:52.637Z,101525.78
2023-10-10T22:30:26.019Z,101524.59
2023-10-10T22:32:54.975Z,101521.06
2023-10-10T22:35:22.935Z,101525.78
2023-10-10T22:37:52.084Z,101519.50
2023-10-10T22:40:25.875Z,101521.09
2023-10-10T22:42:54.145Z,101512.09
2023-10-10T22:45:21.500Z,101515.59
2023-10-10T22:47:49.103Z,101514.44
2023-10-10T22:50:16.247Z,101514.06
2023-10-10T22:52:49.186Z,101512.53
2023-10-10T22:55:18.821Z,101512.53
2023-10-10T22:57:47.090Z,101511.00
2023-10-10T23:00:14.812Z,101512.94
2023-10-10T23:02:43.276Z,101509.03
2023-10-10T23:05:09.982Z,101509.03
2023-10-10T23:07:37.635Z,101500.44
2023-10-10T23:10:05.344Z,101503.94
2023-10-10T23:12:37.313Z,101507.88
2023-10-10T23:15:12.288Z,101505.16
2023-10-10T23:17:40.833Z,101496.53
2023-10-10T23:20:14.152Z,101500.88
2023-10-10T23:22:41.643Z,101496.16
2023-10-10T23:25:13.157Z,101486.75
2023-10-10T23:27:43.675Z,101487.53
2023-10-10T23:30:18.005Z,101487.53
2023-10-10T23:32:45.229Z,101482.81
2023-10-10T23:35:12.340Z,101475.00
2023-10-10T23:37:40.108Z,101476.97
2023-10-10T23:40:17.283Z,101477.78
2023-10-10T23:42:45.332Z,101479.75
2023-10-10T23:45:16.723Z,101487.19
2023-10-10T23:47:44.994Z,101484.84
2023-10-10T23:50:14.889Z,101483.69
2023-10-10T23:52:45.875Z,101486.84
2023-10-10T23:55:17.749Z,101495.47
2023-10-10T23:57:46.596Z,101484.91
